Time;durP1;ratioP1;P1;durP2;ratioP2;P2;SDS_P1;SDS_P2;PMS_P1;PMS_P2;Temp;Humidity;BMP_temperature;BMP_pressure;BME280_temperature;BME280_humidity;BME280_pressure;Samples;Min_cycle;Max_cycle;Signal;HPM_P1;HPM_P2
2022/07/05 00:02:15;;;;;;;6.30;5.80;;;18.60;99.90;;;;;;5000138;28;20179;-69
2022/07/05 00:04:41;;;;;;;5.67;5.17;;;18.50;99.90;;;;;;4993843;28;20470;-68
2022/07/05 00:07:18;;;;;;;6.00;5.47;;;18.30;99.90;;;;;;4993457;28;20505;-68
2022/07/05 00:09:49;;;;;;;5.57;4.87;;;18.20;99.90;;;;;;4993206;28;20205;-66
2022/07/05 00:12:15;;;;;;;4.57;4.17;;;18.20;99.90;;;;;;4991943;28;20445;-68
2022/07/05 00:14:43;;;;;;;4.47;4.07;;;18.20;99.90;;;;;;4993649;28;20994;-66
2022/07/05 00:17:09;;;;;;;5.03;4.70;;;18.20;99.90;;;;;;5000388;28;20459;-66
2022/07/05 00:19:34;;;;;;;4.83;4.33;;;18.20;99.90;;;;;;4991323;28;20430;-68
2022/07/05 00:22:00;;;;;;;4.87;4.47;;;18.30;99.90;;;;;;4985427;28;20512;-68
2022/07/05 00:24:26;;;;;;;4.23;3.93;;;18.20;99.90;;;;;;4991515;28;20242;-66
2022/07/05 00:26:52;;;;;;;3.90;3.60;;;18.20;99.90;;;;;;4991399;28;20234;-67
2022/07/05 00:29:17;;;;;;;4.07;3.70;;;18.10;99.90;;;;;;4993798;28;20184;-66
2022/07/05 00:31:43;;;;;;;3.93;3.70;;;18.10;99.90;;;;;;4998128;28;20222;-66
2022/07/05 00:34:08;;;;;;;4.30;3.33;;;18.10;99.90;;;;;;4994144;28;20534;-67
2022/07/05 00:36:34;;;;;;;3.50;3.20;;;18.10;99.90;;;;;;4997666;28;20554;-67
2022/07/05 00:39:00;;;;;;;3.40;3.10;;;18.10;99.90;;;;;;4991600;28;20919;-68
2022/07/05 00:41:26;;;;;;;8.17;3.50;;;18.20;99.90;;;;;;4993119;28;20621;-68
2022/07/05 00:43:56;;;;;;;4.50;3.50;;;18.20;99.90;;;;;;4999319;28;20438;-66
2022/07/05 00:46:22;;;;;;;3.83;3.53;;;18.10;99.90;;;;;;4991903;28;20219;-70
2022/07/05 00:48:48;;;;;;;3.57;3.37;;;18.10;99.90;;;;;;4999333;28;20446;-67
2022/07/05 00:51:14;;;;;;;4.40;3.47;;;18.10;99.90;;;;;;4990975;28;21980;-66
2022/07/05 00:53:40;;;;;;;4.30;3.40;;;18.00;99.90;;;;;;4992341;28;20190;-67
2022/07/05 00:56:06;;;;;;;4.37;4.00;;;18.00;99.90;;;;;;4991803;28;20215;-66
2022/07/05 00:58:32;;;;;;;3.23;3.03;;;17.90;99.90;;;;;;4991735;28;20449;-67
2022/07/05 01:01:01;;;;;;;3.30;2.87;;;17.80;99.90;;;;;;4993531;28;20968;-66
2022/07/05 01:03:27;;;;;;;4.40;4.00;;;17.70;99.90;;;;;;5000062;28;20446;-66
2022/07/05 01:05:54;;;;;;;3.40;3.20;;;17.70;99.90;;;;;;4991147;28;20936;-66
2022/07/05 01:08:19;;;;;;;3.30;3.10;;;17.80;99.90;;;;;;4994751;28;20199;-68
2022/07/05 01:10:45;;;;;;;3.43;3.03;;;17.80;99.90;;;;;;4991930;28;20940;-66
2022/07/05 01:13:11;;;;;;;4.03;3.53;;;17.70;99.90;;;;;;5000798;28;20565;-67
2022/07/05 01:15:37;;;;;;;3.23;3.03;;;17.70;99.90;;;;;;4990601;28;20650;-66
2022/07/05 01:18:05;;;;;;;3.60;3.40;;;17.70;99.90;;;;;;4990189;28;20199;-67
2022/07/05 01:20:31;;;;;;;8.33;3.53;;;17.70;99.90;;;;;;4988961;28;20476;-67
2022/07/05 01:23:04;;;;;;;3.47;3.20;;;17.80;99.90;;;;;;4987114;28;20443;-66
2022/07/05 01:25:31;;;;;;;3.60;3.30;;;17.70;99.90;;;;;;4990665;28;20438;-69
2022/07/05 01:27:58;;;;;;;3.90;3.70;;;17.50;99.90;;;;;;4992288;28;20474;-66
2022/07/05 01:30:24;;;;;;;3.90;3.60;;;17.50;99.90;;;;;;5007347;28;20438;-67
2022/07/05 01:32:50;;;;;;;4.63;4.30;;;17.40;99.90;;;;;;4991980;28;20434;-66
2022/07/05 01:35:20;;;;;;;3.53;3.20;;;17.40;99.90;;;;;;5002865;28;20438;-66
2022/07/05 01:37:47;;;;;;;4.17;3.77;;;17.40;99.90;;;;;;4988930;28;20471;-66
2022/07/05 01:40:13;;;;;;;4.00;3.70;;;17.40;99.90;;;;;;4991719;28;20475;-68
2022/07/05 01:42:39;;;;;;;5.40;4.53;;;17.30;99.90;;;;;;4992027;28;20438;-68
2022/07/05 01:45:06;;;;;;;4.30;3.50;;;17.30;99.90;;;;;;4990329;28;20500;-66
2022/07/05 01:47:36;;;;;;;7.20;6.50;;;17.20;99.90;;;;;;4990772;28;21003;-67
2022/07/05 01:50:04;;;;;;;4.40;4.10;;;17.20;99.90;;;;;;4988753;28;20431;-68
2022/07/05 01:52:31;;;;;;;4.20;3.90;;;17.00;99.90;;;;;;4989543;28;20445;-66
2022/07/05 01:54:58;;;;;;;4.90;3.90;;;16.90;99.90;;;;;;4990825;28;20446;-66
2022/07/05 01:57:23;;;;;;;4.10;3.80;;;16.90;99.90;;;;;;4990891;28;20509;-66
2022/07/05 01:59:50;;;;;;;4.83;3.30;;;16.90;99.90;;;;;;4989689;28;20498;-66
2022/07/05 02:02:15;;;;;;;3.80;3.50;;;16.90;99.90;;;;;;4990979;28;20684;-66
2022/07/05 02:04:41;;;;;;;4.90;4.33;;;17.00;99.90;;;;;;4990580;28;20443;-68
2022/07/05 02:07:08;;;;;;;3.93;3.63;;;17.00;99.90;;;;;;4992115;28;20234;-66
2022/07/05 02:09:34;;;;;;;4.43;3.90;;;17.00;99.90;;;;;;4991035;28;20956;-67
2022/07/05 02:12:01;;;;;;;3.93;3.63;;;17.00;99.90;;;;;;4990818;28;20434;-68
2022/07/05 02:14:26;;;;;;;3.67;3.33;;;17.00;99.90;;;;;;4989436;28;20924;-66
2022/07/05 02:16:52;;;;;;;3.40;3.10;;;17.00;99.90;;;;;;4990757;28;20501;-68
2022/07/05 02:19:17;;;;;;;4.13;3.83;;;16.90;99.90;;;;;;4990649;28;20230;-67
2022/07/05 02:21:43;;;;;;;4.80;4.40;;;16.90;99.90;;;;;;4989238;28;20298;-66
2022/07/05 02:24:09;;;;;;;3.77;3.57;;;16.90;99.90;;;;;;4988797;28;20262;-68
2022/07/05 02:26:35;;;;;;;6.50;4.17;;;16.80;99.90;;;;;;4991878;28;20272;-66
2022/07/05 02:29:02;;;;;;;4.27;3.40;;;16.70;99.90;;;;;;4991758;28;20183;-66
2022/07/05 02:31:28;;;;;;;3.50;3.30;;;16.60;99.90;;;;;;4986995;28;20814;-66
2022/07/05 02:33:53;;;;;;;5.33;3.93;;;16.70;99.90;;;;;;4994927;28;20454;-68
2022/07/05 02:36:19;;;;;;;4.23;3.93;;;16.60;99.90;;;;;;4991336;28;20673;-66
2022/07/05 02:38:44;;;;;;;5.63;4.07;;;16.60;99.90;;;;;;4993247;28;20186;-66
2022/07/05 02:41:11;;;;;;;3.40;3.20;;;16.60;99.90;;;;;;4992343;28;20653;-67
2022/07/05 02:43:38;;;;;;;3.60;3.30;;;16.50;99.90;;;;;;4987911;28;20198;-68
2022/07/05 02:46:05;;;;;;;4.33;4.03;;;16.60;99.90;;;;;;4998837;28;20922;-66
2022/07/05 02:48:30;;;;;;;4.33;4.03;;;16.60;99.90;;;;;;4988709;28;20435;-66
2022/07/05 02:50:56;;;;;;;4.07;3.70;;;16.50;99.90;;;;;;4990269;28;20435;-66
2022/07/05 02:53:22;;;;;;;4.60;4.20;;;16.50;99.90;;;;;;4986467;28;20234;-67
2022/07/05 02:55:47;;;;;;;4.43;4.13;;;16.60;99.90;;;;;;4989016;28;20206;-68
2022/07/05 02:58:13;;;;;;;3.90;3.70;;;16.50;99.90;;;;;;4988677;28;20218;-67
2022/07/05 03:00:38;;;;;;;4.93;4.43;;;16.50;99.90;;;;;;4989230;28;20222;-67
2022/07/05 03:03:04;;;;;;;4.37;3.97;;;16.50;99.90;;;;;;4991202;28;20315;-68
2022/07/05 03:05:29;;;;;;;5.00;4.50;;;16.50;99.90;;;;;;4982758;28;20180;-66
2022/07/05 03:07:55;;;;;;;4.80;4.40;;;16.50;99.90;;;;;;4988259;28;20211;-67
2022/07/05 03:10:20;;;;;;;4.10;3.73;;;16.50;99.90;;;;;;4988899;28;20589;-66
2022/07/05 03:12:46;;;;;;;4.53;4.13;;;16.50;99.90;;;;;;4990170;28;20204;-66
2022/07/05 03:15:11;;;;;;;4.60;4.13;;;16.40;99.90;;;;;;4992236;28;20671;-66
2022/07/05 03:17:37;;;;;;;4.93;4.53;;;16.40;99.90;;;;;;4994799;28;20216;-66
2022/07/05 03:20:03;;;;;;;7.10;4.60;;;16.40;99.90;;;;;;4993914;28;20183;-66
2022/07/05 03:22:28;;;;;;;7.37;4.90;;;16.30;99.90;;;;;;4996375;28;20309;-66
2022/07/05 03:24:54;;;;;;;4.87;4.50;;;16.30;99.90;;;;;;4998026;28;20979;-66
2022/07/05 03:27:19;;;;;;;5.83;4.00;;;16.10;99.90;;;;;;4992498;28;20330;-65
2022/07/05 03:29:45;;;;;;;4.70;4.30;;;16.10;99.90;;;;;;4996019;28;20182;-66
2022/07/05 03:32:10;;;;;;;3.87;3.67;;;16.10;99.90;;;;;;4992458;28;20196;-68
2022/07/05 03:34:36;;;;;;;4.23;4.03;;;16.10;99.90;;;;;;4993907;28;20187;-67
2022/07/05 03:37:01;;;;;;;3.93;3.63;;;16.00;99.90;;;;;;4992998;28;20208;-66
2022/07/05 03:39:27;;;;;;;4.27;3.97;;;15.90;99.90;;;;;;4992275;28;20303;-68
2022/07/05 03:41:53;;;;;;;4.57;4.17;;;16.00;99.90;;;;;;4992400;28;20202;-66
2022/07/05 03:44:18;;;;;;;4.17;3.87;;;16.10;99.90;;;;;;4992584;28;20442;-66
2022/07/05 03:46:44;;;;;;;3.50;3.30;;;16.20;99.90;;;;;;4995770;28;20241;-67
2022/07/05 03:49:09;;;;;;;4.67;4.37;;;16.30;99.90;;;;;;4998196;28;20191;-66
2022/07/05 03:51:35;;;;;;;4.07;3.80;;;16.30;99.90;;;;;;5000812;28;20188;-66
2022/07/05 03:54:01;;;;;;;4.67;4.23;;;16.30;99.90;;;;;;4997387;28;20649;-70
2022/07/05 03:56:27;;;;;;;4.83;3.90;;;16.40;99.90;;;;;;4995884;28;20191;-67
2022/07/05 03:58:52;;;;;;;5.27;4.87;;;16.30;99.90;;;;;;4998853;28;20947;-66
2022/07/05 04:01:18;;;;;;;6.33;4.17;;;16.20;99.90;;;;;;5010074;28;20756;-66
2022/07/05 04:03:43;;;;;;;5.70;3.50;;;16.30;99.90;;;;;;5002810;28;20680;-67
2022/07/05 04:06:10;;;;;;;4.00;3.80;;;16.40;99.90;;;;;;4992775;28;20182;-66
2022/07/05 04:08:36;;;;;;;3.70;3.43;;;16.50;99.90;;;;;;5002023;28;20182;-66
2022/07/05 04:11:01;;;;;;;5.00;3.80;;;16.70;99.90;;;;;;5004456;28;20451;-67
2022/07/05 04:13:27;;;;;;;3.50;3.20;;;16.80;99.90;;;;;;5007255;28;20187;-67
2022/07/05 04:15:53;;;;;;;4.80;4.40;;;16.90;99.90;;;;;;4993701;28;20618;-66
2022/07/05 04:18:18;;;;;;;4.00;3.70;;;16.90;99.90;;;;;;5001056;28;20195;-66
2022/07/05 04:20:44;;;;;;;4.57;4.17;;;17.00;99.90;;;;;;5004699;28;20830;-68
2022/07/05 04:23:10;;;;;;;4.97;4.50;;;17.00;99.90;;;;;;4996628;28;20658;-66
2022/07/05 04:25:35;;;;;;;4.80;4.50;;;17.10;99.90;;;;;;4997156;28;20188;-66
2022/07/05 04:28:01;;;;;;;4.50;4.20;;;17.20;99.90;;;;;;4992135;28;20204;-67
2022/07/05 04:30:27;;;;;;;4.50;4.10;;;17.30;99.90;;;;;;4989106;28;20668;-68
2022/07/05 04:32:53;;;;;;;5.63;5.23;;;17.40;99.90;;;;;;4991176;28;20191;-68
2022/07/05 04:35:18;;;;;;;5.67;5.17;;;17.40;99.90;;;;;;4991218;28;20249;-67
2022/07/05 04:37:44;;;;;;;3.93;3.67;;;17.40;99.90;;;;;;4989011;28;20737;-67
2022/07/05 04:40:12;;;;;;;4.37;3.97;;;17.60;99.90;;;;;;4990811;28;20673;-67
2022/07/05 04:42:37;;;;;;;5.00;4.60;;;17.70;99.90;;;;;;4984696;28;20188;-68
2022/07/05 04:45:04;;;;;;;4.30;4.00;;;17.80;99.90;;;;;;4992845;28;20442;-67
2022/07/05 04:47:29;;;;;;;5.40;4.50;;;18.00;99.90;;;;;;4989008;28;20331;-67
2022/07/05 04:49:59;;;;;;;4.63;4.20;;;18.00;99.90;;;;;;4991847;28;20470;-67
2022/07/05 04:52:25;;;;;;;7.63;4.63;;;18.10;99.90;;;;;;4991704;28;20641;-67
2022/07/05 04:54:50;;;;;;;4.23;3.90;;;18.20;99.90;;;;;;4991712;28;20435;-67
2022/07/05 04:57:16;;;;;;;3.80;3.50;;;18.30;99.90;;;;;;4992912;28;20229;-67
2022/07/05 04:59:41;;;;;;;4.30;3.10;;;18.50;99.90;;;;;;4995250;28;20194;-68
2022/07/05 05:02:07;;;;;;;4.90;4.50;;;18.60;99.90;;;;;;4998546;28;20215;-68
2022/07/05 05:04:32;;;;;;;3.50;3.20;;;18.70;99.90;;;;;;5000781;28;20205;-67
2022/07/05 05:06:58;;;;;;;6.67;3.73;;;18.90;99.90;;;;;;4991983;28;20206;-67
2022/07/05 05:09:24;;;;;;;4.30;3.90;;;19.10;99.90;;;;;;5002429;28;20179;-68
2022/07/05 05:11:49;;;;;;;3.53;3.23;;;19.30;99.90;;;;;;5002438;28;20184;-68
2022/07/05 05:14:15;;;;;;;3.30;3.10;;;19.50;99.90;;;;;;4994584;28;20176;-66
2022/07/05 05:16:40;;;;;;;4.20;4.00;;;19.70;99.90;;;;;;4990812;28;20787;-67
2022/07/05 05:19:06;;;;;;;4.30;3.90;;;19.90;99.90;;;;;;4989277;28;20229;-67
2022/07/05 05:21:32;;;;;;;7.53;4.00;;;20.10;99.90;;;;;;4991208;28;20211;-65
2022/07/05 05:23:57;;;;;;;3.70;3.50;;;20.10;99.90;;;;;;4999223;28;20266;-67
2022/07/05 05:26:23;;;;;;;3.50;3.30;;;20.10;99.90;;;;;;5000455;28;20199;-66
2022/07/05 05:28:48;;;;;;;3.70;3.10;;;20.20;99.90;;;;;;5005362;28;20183;-65
2022/07/05 05:31:14;;;;;;;5.53;3.20;;;20.30;99.90;;;;;;4992739;28;20184;-66
2022/07/05 05:33:40;;;;;;;4.17;3.27;;;20.30;99.90;;;;;;4996609;28;20190;-67
2022/07/05 05:36:06;;;;;;;3.40;3.10;;;20.40;99.90;;;;;;4993644;28;20205;-66
2022/07/05 05:38:32;;;;;;;3.17;2.97;;;20.60;99.90;;;;;;4989254;28;20187;-66
2022/07/05 05:40:57;;;;;;;3.13;2.93;;;20.70;99.90;;;;;;4993500;28;20462;-66
2022/07/05 05:43:23;;;;;;;2.67;2.47;;;20.90;99.90;;;;;;4995840;28;20442;-66
2022/07/05 05:45:49;;;;;;;2.87;2.67;;;21.00;99.90;;;;;;4991211;28;20191;-66
2022/07/05 05:48:14;;;;;;;4.17;3.63;;;21.10;99.90;;;;;;4991998;28;20199;-66
2022/07/05 05:50:40;;;;;;;2.90;2.70;;;21.30;99.90;;;;;;4990867;28;20262;-67
2022/07/05 05:53:05;;;;;;;2.80;2.60;;;21.30;99.90;;;;;;4997408;28;20692;-67
2022/07/05 05:55:31;;;;;;;3.60;3.10;;;21.40;99.90;;;;;;4991928;28;20179;-65
2022/07/05 05:58:09;;;;;;;3.10;2.80;;;21.60;99.90;;;;;;4993072;28;20266;-63
2022/07/05 06:00:35;;;;;;;2.90;2.70;;;21.80;99.90;;;;;;4988782;28;20454;-67
2022/07/05 06:03:00;;;;;;;2.60;2.40;;;22.00;99.90;;;;;;4991741;28;20444;-67
2022/07/05 06:05:26;;;;;;;2.30;2.10;;;22.10;99.90;;;;;;4990504;28;20171;-67
2022/07/05 06:07:55;;;;;;;2.10;2.00;;;22.30;99.00;;;;;;4990963;28;20212;-66
2022/07/05 06:10:29;;;;;;;2.60;2.40;;;22.50;98.80;;;;;;4989241;28;20258;-67
2022/07/05 06:12:56;;;;;;;3.40;3.20;;;22.50;98.60;;;;;;4991579;28;20442;-66
2022/07/05 06:15:22;;;;;;;2.27;2.17;;;22.60;98.60;;;;;;4991770;28;20454;-67
2022/07/05 06:17:48;;;;;;;2.27;1.90;;;22.90;98.20;;;;;;4986053;28;20613;-67
2022/07/05 06:20:19;;;;;;;2.10;2.00;;;22.80;98.00;;;;;;4995456;28;20230;-67
2022/07/05 06:22:45;;;;;;;3.10;2.53;;;22.80;98.60;;;;;;4985967;28;20431;-64
2022/07/05 06:25:11;;;;;;;2.97;2.40;;;22.80;97.60;;;;;;4987296;28;20441;-67
2022/07/05 06:27:45;;;;;;;2.57;2.37;;;22.90;96.90;;;;;;4995352;28;20458;-67
2022/07/05 06:30:14;;;;;;;3.53;2.27;;;23.10;97.10;;;;;;4990403;28;20438;-66
2022/07/05 06:32:40;;;;;;;3.53;2.00;;;23.30;96.40;;;;;;4987952;28;20645;-68
2022/07/05 06:35:06;;;;;;;2.07;1.83;;;23.50;95.60;;;;;;4987157;28;20513;-66
2022/07/05 06:37:57;;;;;;;2.50;2.30;;;23.60;95.20;;;;;;4993794;28;20191;-66
2022/07/05 06:40:28;;;;;;;3.20;2.07;;;23.80;95.00;;;;;;4990191;28;20646;-65
2022/07/05 06:42:59;;;;;;;4.53;1.93;;;24.00;94.40;;;;;;4989118;28;20436;-67
2022/07/05 06:45:25;;;;;;;1.90;1.80;;;24.20;93.50;;;;;;4991558;28;20446;-67
2022/07/05 06:48:01;;;;;;;1.77;1.67;;;24.20;92.70;;;;;;4988227;28;20447;-67
2022/07/05 06:50:29;;;;;;;4.33;2.03;;;24.30;92.20;;;;;;4989378;28;20959;-66
2022/07/05 06:52:55;;;;;;;4.13;1.90;;;24.20;91.40;;;;;;4988118;28;20434;-66
2022/07/05 06:55:21;;;;;;;7.53;1.73;;;24.20;91.50;;;;;;4991057;28;20442;-66
2022/07/05 06:57:47;;;;;;;2.50;2.30;;;23.90;91.60;;;;;;4986205;28;22204;-66
2022/07/05 07:00:13;;;;;;;1.90;1.80;;;24.00;91.10;;;;;;4987313;28;20474;-66
2022/07/05 07:02:39;;;;;;;3.63;1.77;;;24.20;90.50;;;;;;4989202;28;20186;-67
2022/07/05 07:05:05;;;;;;;3.60;2.20;;;24.50;89.60;;;;;;4992704;28;20434;-66
2022/07/05 07:10:16;;;;;;;3.17;1.87;;;24.10;90.10;;;;;;4989372;28;20437;-66
2022/07/05 07:12:42;;;;;;;3.70;3.40;;;24.30;89.70;;;;;;4991962;28;20521;-66
2022/07/05 07:15:08;;;;;;;2.60;2.03;;;24.70;88.40;;;;;;4992628;28;20183;-66
2022/07/05 07:17:33;;;;;;;2.40;1.90;;;25.00;87.70;;;;;;4992296;28;20203;-67
2022/07/05 07:19:59;;;;;;;1.80;1.70;;;25.10;86.40;;;;;;4993999;28;20979;-67
2022/07/05 07:22:24;;;;;;;1.70;1.60;;;25.00;85.60;;;;;;4993981;28;20215;-65
2022/07/05 07:24:50;;;;;;;1.90;1.80;;;25.00;86.30;;;;;;4994510;28;20265;-65
2022/07/05 07:27:15;;;;;;;3.30;2.00;;;25.30;85.70;;;;;;4994472;28;20311;-67
2022/07/05 07:29:41;;;;;;;2.83;2.10;;;25.70;83.80;;;;;;4971486;28;20265;-64
2022/07/05 07:32:09;;;;;;;1.90;1.40;;;25.80;82.40;;;;;;4978760;28;20265;-64
2022/07/05 07:34:36;;;;;;;2.10;1.60;;;26.00;81.20;;;;;;4992314;28;20658;-66
2022/07/05 07:37:02;;;;;;;2.50;1.40;;;26.20;80.90;;;;;;4990912;28;20479;-67
2022/07/05 07:39:28;;;;;;;1.43;1.33;;;26.40;81.10;;;;;;4990573;28;20950;-64
2022/07/05 07:41:54;;;;;;;1.60;1.50;;;26.40;79.10;;;;;;4991871;28;20473;-67
2022/07/05 07:44:19;;;;;;;2.50;1.60;;;26.50;78.30;;;;;;4991719;28;20225;-67
2022/07/05 07:46:46;;;;;;;3.07;1.67;;;26.70;78.40;;;;;;4990389;28;20474;-66
2022/07/05 07:49:12;;;;;;;2.00;1.77;;;27.00;75.80;;;;;;4991048;28;20180;-67
2022/07/05 07:51:38;;;;;;;3.40;2.90;;;26.80;75.30;;;;;;4993222;28;20529;-66
2022/07/05 07:54:03;;;;;;;2.37;2.00;;;26.60;76.40;;;;;;4977760;28;20517;-66
2022/07/05 07:56:29;;;;;;;3.63;3.43;;;26.80;75.20;;;;;;4991642;28;20204;-67
2022/07/05 07:58:54;;;;;;;3.43;1.50;;;27.00;75.30;;;;;;4990191;28;20626;-66
2022/07/05 08:01:20;;;;;;;3.77;3.47;;;27.30;74.10;;;;;;4990547;28;20206;-64
2022/07/05 08:03:46;;;;;;;3.07;2.87;;;27.50;73.50;;;;;;4989180;28;20658;-66
2022/07/05 08:06:13;;;;;;;2.40;2.20;;;27.70;73.60;;;;;;5001595;28;20831;-67
2022/07/05 08:08:39;;;;;;;2.57;1.70;;;28.00;72.70;;;;;;4992230;28;20198;-66
2022/07/05 08:11:06;;;;;;;2.83;1.67;;;28.20;70.50;;;;;;4990780;28;20529;-66
2022/07/05 08:13:31;;;;;;;2.20;1.60;;;28.20;70.00;;;;;;4991908;28;20940;-66
2022/07/05 08:15:58;;;;;;;2.53;2.10;;;28.20;70.70;;;;;;4993145;28;20457;-66
2022/07/05 08:23:52;;;;;;;4.90;1.70;;;28.10;69.50;;;;;;4990204;28;20971;-66
2022/07/05 08:26:18;;;;;;;1.83;1.73;;;28.30;67.90;;;;;;4974510;28;20435;-65
2022/07/05 08:28:43;;;;;;;1.90;1.80;;;28.50;68.50;;;;;;4990284;28;20256;-66
2022/07/05 08:31:09;;;;;;;4.03;3.60;;;28.60;66.70;;;;;;4988075;28;20188;-64
2022/07/05 08:33:34;;;;;;;2.03;1.90;;;28.60;66.60;;;;;;4989724;28;20203;-67
2022/07/05 08:36:00;;;;;;;3.33;2.20;;;28.00;67.50;;;;;;4991556;28;20642;-67
2022/07/05 08:38:26;;;;;;;2.87;1.97;;;28.20;66.80;;;;;;4985950;28;20187;-66
2022/07/05 08:40:54;;;;;;;3.53;1.60;;;28.20;66.70;;;;;;4991255;28;20210;-66
2022/07/05 08:43:22;;;;;;;3.90;1.80;;;28.30;66.30;;;;;;4993818;28;20566;-65
2022/07/05 08:45:49;;;;;;;6.43;1.93;;;29.00;65.60;;;;;;4991452;28;20442;-67
2022/07/05 08:48:16;;;;;;;21.13;2.60;;;29.10;64.60;;;;;;4997980;28;20604;-67
2022/07/05 08:50:43;;;;;;;3.27;1.90;;;29.40;63.20;;;;;;4991921;28;20439;-67
2022/07/05 08:53:09;;;;;;;2.40;1.80;;;29.50;62.70;;;;;;4994014;28;20540;-66
2022/07/05 08:55:35;;;;;;;1.90;1.80;;;29.70;60.60;;;;;;4991272;28;20442;-65
2022/07/05 08:58:01;;;;;;;3.00;1.90;;;29.80;60.60;;;;;;4989449;28;22035;-66
2022/07/05 09:00:27;;;;;;;2.27;1.80;;;30.00;59.80;;;;;;4990421;28;20869;-67
2022/07/05 09:02:54;;;;;;;1.50;1.40;;;30.20;59.20;;;;;;4990099;28;20187;-67
2022/07/05 09:05:22;;;;;;;2.53;1.90;;;30.40;58.80;;;;;;4988746;28;20452;-67
2022/07/05 09:07:57;;;;;;;1.90;1.80;;;30.50;57.10;;;;;;4991421;28;20550;-65
2022/07/05 09:10:26;;;;;;;1.77;1.67;;;30.70;58.00;;;;;;4987046;28;20446;-66
2022/07/05 09:12:51;;;;;;;1.93;1.47;;;30.70;57.10;;;;;;4986964;28;20517;-66
2022/07/05 09:15:17;;;;;;;1.93;1.83;;;30.50;55.70;;;;;;4994601;28;20522;-66
2022/07/05 09:17:45;;;;;;;1.93;1.83;;;30.60;55.50;;;;;;4989152;28;20195;-67
2022/07/05 09:20:12;;;;;;;4.90;1.90;;;30.70;55.60;;;;;;4993710;28;20657;-65
2022/07/05 09:22:48;;;;;;;1.67;1.57;;;30.90;54.90;;;;;;4988354;28;20836;-66
2022/07/05 09:25:15;;;;;;;5.87;2.30;;;31.00;54.50;;;;;;4987244;28;20434;-67
2022/07/05 09:27:51;;;;;;;2.07;1.97;;;31.30;54.50;;;;;;4988663;28;20799;-66
2022/07/05 09:30:33;;;;;;;1.70;1.60;;;30.80;53.30;;;;;;4989104;28;20468;-66
2022/07/05 09:33:11;;;;;;;4.70;2.30;;;30.90;53.30;;;;;;5000448;28;20410;-66
2022/07/05 09:35:42;;;;;;;4.80;1.50;;;30.80;52.50;;;;;;4995965;28;20433;-67
2022/07/05 09:38:20;;;;;;;3.73;1.70;;;31.30;52.70;;;;;;4995164;28;20919;-67
2022/07/05 09:40:57;;;;;;;5.93;1.87;;;31.60;52.10;;;;;;4994885;28;20994;-67
2022/07/05 09:43:28;;;;;;;2.13;1.93;;;32.00;51.20;;;;;;4997012;28;20446;-66
2022/07/05 09:46:04;;;;;;;2.57;1.57;;;31.60;51.50;;;;;;4988595;28;20825;-66
2022/07/05 09:48:31;;;;;;;1.90;1.80;;;32.20;50.50;;;;;;4987194;28;20942;-66
2022/07/05 09:51:09;;;;;;;1.97;1.87;;;32.80;50.50;;;;;;4990039;28;20443;-67
2022/07/05 09:53:49;;;;;;;4.20;3.00;;;33.70;50.10;;;;;;4985359;28;20442;-67
2022/07/05 09:56:15;;;;;;;1.90;1.80;;;34.10;49.20;;;;;;4991006;28;20434;-65
2022/07/05 09:58:40;;;;;;;3.77;2.00;;;34.40;48.10;;;;;;4987637;28;20508;-67
2022/07/05 10:01:27;;;;;;;3.20;1.63;;;34.80;47.50;;;;;;4999026;28;20209;-66
2022/07/05 10:04:03;;;;;;;2.70;1.57;;;35.10;45.70;;;;;;4988068;28;20211;-66
2022/07/05 10:06:32;;;;;;;7.33;1.60;;;35.30;45.20;;;;;;4987314;28;20470;-68
2022/07/05 10:08:58;;;;;;;2.10;2.00;;;35.00;43.90;;;;;;5008161;23;20482;-64
2022/07/05 10:11:24;;;;;;;2.40;1.60;;;35.30;42.50;;;;;;4980424;28;20498;-63
2022/07/05 10:13:52;;;;;;;3.10;1.80;;;35.70;52.60;;;;;;4982743;28;20443;-64
2022/07/05 10:16:20;;;;;;;4.13;1.73;;;36.40;51.50;;;;;;4976606;28;20184;-63
2022/07/05 10:18:50;;;;;;;4.20;1.90;;;35.90;48.20;;;;;;4968276;28;20483;-63
2022/07/05 10:21:17;;;;;;;3.83;2.00;;;36.40;50.40;;;;;;4953839;28;20881;-64
2022/07/05 10:23:44;;;;;;;5.30;2.20;;;35.70;49.80;;;;;;4966292;28;20851;-62
2022/07/05 10:26:12;;;;;;;4.40;1.77;;;35.20;49.90;;;;;;4967724;28;20502;-62
2022/07/05 10:28:44;;;;;;;2.47;1.97;;;36.60;50.00;;;;;;4964838;28;21417;-63
2022/07/05 10:31:12;;;;;;;2.40;1.53;;;37.60;47.40;;;;;;4971165;28;20447;-63
2022/07/05 10:33:38;;;;;;;2.20;1.67;;;37.20;43.00;;;;;;4971425;28;20493;-63
2022/07/05 10:36:05;;;;;;;1.90;1.80;;;36.50;38.20;;;;;;4968079;28;20518;-64
2022/07/05 10:38:35;;;;;;;2.33;2.07;;;35.30;40.00;;;;;;4972348;28;20463;-62
2022/07/05 10:41:04;;;;;;;2.13;1.90;;;35.90;38.90;;;;;;4976248;28;20448;-62
2022/07/05 10:43:30;;;;;;;2.90;2.37;;;35.60;39.30;;;;;;4975267;28;20439;-62
2022/07/05 10:45:56;;;;;;;2.70;1.77;;;34.60;39.70;;;;;;4974242;28;20819;-62
2022/07/05 10:48:23;;;;;;;5.33;2.57;;;36.60;38.50;;;;;;4972616;28;20203;-62
2022/07/05 10:50:55;;;;;;;3.23;1.77;;;38.50;37.70;;;;;;4974048;28;20725;-63
2022/07/05 10:53:22;;;;;;;5.40;3.17;;;37.60;36.30;;;;;;4974495;28;20961;-62
2022/07/05 10:55:54;;;;;;;1.73;1.63;;;38.70;36.90;;;;;;4974208;28;20780;-61
2022/07/05 10:58:21;;;;;;;2.70;1.97;;;38.40;35.10;;;;;;4967529;28;20462;-63
2022/07/05 11:00:52;;;;;;;2.20;2.00;;;39.30;34.70;;;;;;4974612;28;20459;-61
2022/07/05 11:03:37;;;;;;;2.10;1.90;;;40.80;33.10;;;;;;4974182;28;20440;-61
2022/07/05 11:06:04;;;;;;;1.60;1.50;;;40.50;31.50;;;;;;4964862;28;20467;-62
2022/07/05 11:08:50;;;;;;;2.70;2.37;;;39.10;33.70;;;;;;4969611;28;20475;-62
2022/07/05 11:11:22;;;;;;;4.37;3.40;;;39.00;33.10;;;;;;4966800;28;20451;-62
2022/07/05 11:13:48;;;;;;;2.93;2.83;;;40.10;32.70;;;;;;4970611;28;20975;-62
2022/07/05 11:16:26;;;;;;;2.03;1.53;;;41.00;32.50;;;;;;4972990;28;20438;-63
2022/07/05 11:19:06;;;;;;;2.23;1.70;;;40.10;32.20;;;;;;4975623;28;20467;-63
2022/07/05 11:21:32;;;;;;;3.47;1.67;;;40.00;32.50;;;;;;4974944;28;20556;-62
2022/07/05 11:24:24;;;;;;;1.90;1.80;;;39.80;32.00;;;;;;4975965;28;20432;-62
2022/07/05 11:26:52;;;;;;;2.57;2.10;;;39.50;32.50;;;;;;4973359;28;20435;-62
2022/07/05 11:29:44;;;;;;;2.90;1.67;;;40.50;31.10;;;;;;4971025;28;20546;-62
2022/07/05 11:32:12;;;;;;;1.50;1.40;;;41.70;30.60;;;;;;4975269;28;20431;-62
2022/07/05 11:34:39;;;;;;;1.93;1.83;;;42.50;33.40;;;;;;4964378;28;20435;-63
2022/07/05 11:37:14;;;;;;;2.87;1.50;;;43.70;43.10;;;;;;4977079;28;20446;-62
2022/07/05 11:39:43;;;;;;;3.10;2.13;;;44.40;29.10;;;;;;4968170;28;20458;-65
2022/07/05 11:42:10;;;;;;;2.50;1.97;;;44.20;28.90;;;;;;4968181;28;20979;-62
2022/07/05 11:44:36;;;;;;;3.17;1.90;;;43.40;29.00;;;;;;4967558;28;20495;-66
2022/07/05 11:47:03;;;;;;;1.80;1.70;;;39.70;30.00;;;;;;4968975;28;20450;-63
2022/07/05 11:49:29;;;;;;;1.93;1.83;;;37.80;32.20;;;;;;4968608;28;20477;-63
2022/07/05 11:51:59;;;;;;;1.87;1.70;;;38.50;32.20;;;;;;4969795;28;20510;-63
2022/07/05 11:54:30;;;;;;;1.80;1.70;;;40.70;30.30;;;;;;4967373;28;20455;-63
2022/07/05 11:56:56;;;;;;;2.10;1.90;;;41.90;30.00;;;;;;4970286;28;20435;-63
2022/07/05 11:59:24;;;;;;;1.93;1.83;;;41.90;29.80;;;;;;4971452;28;20509;-63
2022/07/05 12:01:50;;;;;;;1.87;1.77;;;42.40;29.70;;;;;;4970884;28;20467;-64
2022/07/05 12:04:30;;;;;;;1.73;1.67;;;42.90;29.40;;;;;;4963625;28;20538;-63
2022/07/05 12:06:56;;;;;;;2.63;2.00;;;43.20;28.80;;;;;;4966115;28;20451;-63
2022/07/05 12:09:27;;;;;;;2.60;1.90;;;43.80;28.50;;;;;;4970816;28;20819;-63
2022/07/05 12:14:48;;;;;;;2.93;1.63;;;42.50;28.40;;;;;;4969779;28;20513;-63
2022/07/05 12:17:18;;;;;;;3.13;2.80;;;42.30;29.60;;;;;;4968820;28;20475;-63
2022/07/05 12:19:45;;;;;;;2.67;2.47;;;42.20;28.70;;;;;;4967644;28;20471;-63
2022/07/05 12:22:11;;;;;;;2.53;2.00;;;41.20;28.90;;;;;;4960888;28;20955;-63
2022/07/05 12:24:37;;;;;;;1.70;1.60;;;41.10;29.80;;;;;;4956305;28;20463;-64
2022/07/05 12:27:03;;;;;;;2.10;2.00;;;42.40;29.70;;;;;;4968664;28;20184;-63
2022/07/05 12:29:28;;;;;;;2.03;1.80;;;43.40;28.50;;;;;;4969277;28;20502;-63
2022/07/05 12:32:01;;;;;;;2.40;2.00;;;43.90;28.10;;;;;;4966678;28;20479;-63
2022/07/05 12:34:27;;;;;;;4.77;2.60;;;44.80;27.80;;;;;;4965553;28;20220;-63
2022/07/05 12:36:52;;;;;;;2.60;2.40;;;44.80;27.80;;;;;;4944545;28;20451;-63
2022/07/05 12:39:18;;;;;;;1.97;1.77;;;46.40;27.80;;;;;;4967497;28;20936;-63
2022/07/05 12:41:43;;;;;;;2.00;1.87;;;45.80;27.10;;;;;;4964739;28;20290;-63
2022/07/05 12:44:09;;;;;;;4.43;2.23;;;45.50;27.60;;;;;;4966989;28;20188;-63
2022/07/05 12:46:38;;;;;;;2.67;2.30;;;45.30;27.30;;;;;;4965332;28;20195;-63
2022/07/05 12:49:04;;;;;;;2.80;2.30;;;45.00;26.90;;;;;;4964366;28;20204;-63
2022/07/05 12:51:37;;;;;;;5.50;2.33;;;43.80;27.20;;;;;;4972552;28;20469;-63
2022/07/05 12:59:36;;;;;;;2.10;2.00;;;42.40;28.70;;;;;;4971088;28;20572;-63
2022/07/05 13:02:02;;;;;;;3.03;1.83;;;44.30;28.10;;;;;;4965221;28;20467;-63
2022/07/05 13:04:28;;;;;;;2.53;2.23;;;44.90;27.50;;;;;;4966998;28;20479;-63
2022/07/05 13:06:58;;;;;;;6.03;2.60;;;45.10;27.40;;;;;;4969960;28;20817;-63